createdAt,value
2018-05-31T09:25:20.614Z,29.20
2018-05-31T09:28:39.627Z,29.60
2018-05-31T09:31:58.027Z,28.90
2018-05-31T09:35:17.028Z,28.80
2018-05-31T09:38:35.900Z,29.00
2018-05-31T09:41:54.257Z,29.00
2018-05-31T09:45:12.800Z,29.00
2018-05-31T09:48:31.342Z,29.40
2018-05-31T09:51:49.003Z,29.60
2018-05-31T09:55:07.409Z,30.10
2018-05-31T09:58:26.927Z,30.50
2018-05-31T10:01:46.259Z,30.70
2018-05-31T10:05:04.961Z,30.70
2018-05-31T10:08:23.700Z,31.00
2018-05-31T10:11:41.959Z,30.40
2018-05-31T10:15:00.228Z,30.80
2018-05-31T10:18:21.789Z,30.80
2018-05-31T10:21:42.507Z,31.10
2018-05-31T10:25:00.890Z,31.00
2018-05-31T10:28:19.328Z,31.60
2018-05-31T10:31:36.806Z,31.50
2018-05-31T10:34:55.051Z,30.80
2018-05-31T10:38:12.540Z,30.70
2018-05-31T10:41:30.008Z,29.50
2018-05-31T10:44:47.492Z,29.70
2018-05-31T10:48:04.968Z,30.80
2018-05-31T10:51:29.231Z,31.30
2018-05-31T10:54:48.619Z,32.40
2018-05-31T10:58:14.677Z,32.40
2018-05-31T11:01:39.701Z,32.80
2018-05-31T11:04:57.457Z,32.80
2018-05-31T11:08:14.961Z,31.30
2018-05-31T11:11:32.432Z,32.20
2018-05-31T11:14:50.025Z,32.20
2018-05-31T11:18:07.601Z,32.50
2018-05-31T11:21:25.148Z,32.10
2018-05-31T11:24:43.406Z,30.80
2018-05-31T11:28:00.921Z,30.80
2018-05-31T11:31:19.157Z,31.60
2018-05-31T11:34:36.682Z,31.50
2018-05-31T11:37:54.119Z,32.10
2018-05-31T11:41:11.697Z,32.30
2018-05-31T11:44:29.197Z,31.70
2018-05-31T11:47:47.482Z,31.90
2018-05-31T11:51:04.964Z,31.90
2018-05-31T11:54:23.220Z,32.60
2018-05-31T11:57:41.633Z,33.30
2018-05-31T12:00:59.111Z,33.30
2018-05-31T12:04:17.358Z,34.40
2018-05-31T12:07:35.594Z,34.50
2018-05-31T12:10:53.871Z,34.50
2018-05-31T12:14:12.111Z,34.20
2018-05-31T12:17:30.039Z,34.20
2018-05-31T12:20:48.296Z,34.20
2018-05-31T12:24:05.811Z,34.20
2018-05-31T12:27:24.076Z,34.10
2018-05-31T12:30:41.571Z,34.10
2018-05-31T12:33:59.055Z,33.80
2018-05-31T12:37:16.541Z,33.30
2018-05-31T12:40:34.119Z,32.30
2018-05-31T12:43:51.616Z,32.10
2018-05-31T12:47:09.848Z,31.30
2018-05-31T12:50:27.868Z,31.30
2018-05-31T12:53:45.475Z,31.40
2018-05-31T12:57:03.675Z,31.60
2018-05-31T13:00:21.919Z,31.10
2018-05-31T13:03:39.553Z,31.00
2018-05-31T13:06:57.027Z,31.20
2018-05-31T13:10:14.832Z,31.30
2018-05-31T13:13:33.144Z,31.60
2018-05-31T13:16:50.578Z,31.60
2018-05-31T13:20:08.076Z,31.70
2018-05-31T13:23:25.547Z,31.60
2018-05-31T13:26:43.039Z,31.70
2018-05-31T13:30:00.519Z,31.80
2018-05-31T13:33:18.023Z,31.70
2018-05-31T13:36:35.479Z,31.50
2018-05-31T13:39:52.955Z,31.00
2018-05-31T13:43:10.474Z,31.10
2018-05-31T13:46:27.933Z,30.80
2018-05-31T13:49:45.408Z,30.90
2018-05-31T13:53:03.646Z,31.00
2018-05-31T13:56:21.141Z,31.00
2018-05-31T13:59:38.616Z,31.10
2018-05-31T14:02:56.855Z,31.00
2018-05-31T14:06:14.361Z,31.00
2018-05-31T14:09:32.652Z,31.00
2018-05-31T14:12:50.924Z,31.10
2018-05-31T14:16:08.397Z,31.10
2018-05-31T14:19:25.879Z,31.30
2018-05-31T14:22:43.681Z,31.30
2018-05-31T14:26:01.942Z,31.40
2018-05-31T14:29:20.176Z,31.20
2018-05-31T14:32:37.734Z,31.10
2018-05-31T14:35:55.247Z,31.40
2018-05-31T14:39:12.724Z,31.10
2018-05-31T14:42:30.198Z,30.90
2018-05-31T14:45:47.676Z,31.00
2018-05-31T14:49:05.426Z,31.10
2018-05-31T14:52:22.885Z,31.00
2018-05-31T14:55:41.272Z,31.00
2018-05-31T14:58:58.735Z,31.00
2018-05-31T15:02:16.322Z,30.90
2018-05-31T15:05:34.559Z,30.90
2018-05-31T15:08:52.401Z,30.90
2018-05-31T15:12:09.920Z,31.10
2018-05-31T15:15:27.380Z,31.20
2018-05-31T15:18:44.956Z,31.20
2018-05-31T15:22:02.461Z,31.10
2018-05-31T15:25:20.146Z,30.80
2018-05-31T15:28:37.695Z,30.40
2018-05-31T15:31:55.957Z,29.70
2018-05-31T15:35:14.296Z,29.50
2018-05-31T15:38:32.548Z,29.30
2018-05-31T15:41:50.789Z,29.40
2018-05-31T15:45:09.105Z,29.50
2018-05-31T15:48:26.666Z,29.50
2018-05-31T15:51:44.912Z,29.50
2018-05-31T15:55:02.403Z,29.50
2018-05-31T15:58:19.869Z,28.70
2018-05-31T16:01:37.368Z,28.10
2018-05-31T16:04:54.837Z,27.70
2018-05-31T16:08:13.078Z,27.00
2018-05-31T16:11:30.623Z,27.00
2018-05-31T16:14:49.024Z,26.70
2018-05-31T16:18:06.764Z,26.60
2018-05-31T16:21:24.535Z,26.60
2018-05-31T16:24:42.066Z,26.60
2018-05-31T16:28:00.366Z,26.70
2018-05-31T16:31:17.890Z,26.70
2018-05-31T16:34:35.386Z,26.60
2018-05-31T16:37:53.633Z,26.70
2018-05-31T16:41:12.778Z,26.60
2018-05-31T16:44:30.263Z,26.60
2018-05-31T16:47:47.738Z,26.60
2018-05-31T16:51:05.210Z,26.50
2018-05-31T16:54:22.684Z,26.50
2018-05-31T16:57:40.167Z,26.30
2018-05-31T17:00:57.619Z,26.20
2018-05-31T17:04:15.100Z,26.20
2018-05-31T17:07:32.571Z,26.20
2018-05-31T17:10:50.048Z,26.00
2018-05-31T17:14:07.522Z,25.70
2018-05-31T17:17:24.996Z,21.60
2018-05-31T17:20:42.466Z,25.60
2018-05-31T17:24:00.711Z,25.50
2018-05-31T17:27:19.741Z,25.60
2018-05-31T17:30:37.432Z,25.60
2018-05-31T17:33:54.916Z,25.40
2018-05-31T17:37:12.387Z,25.30
2018-05-31T17:40:30.004Z,25.10
2018-05-31T17:43:47.503Z,25.10
2018-05-31T17:47:04.997Z,25.00
2018-05-31T17:50:22.475Z,24.90
2018-05-31T17:53:40.720Z,24.90
2018-05-31T17:56:58.192Z,24.90
2018-05-31T18:00:15.727Z,24.80
2018-05-31T18:03:33.215Z,24.80
2018-05-31T18:06:51.754Z,24.80
2018-05-31T18:10:09.338Z,24.90
2018-05-31T18:13:26.803Z,24.80
2018-05-31T18:16:44.265Z,24.70
2018-05-31T18:20:01.776Z,24.50
2018-05-31T18:23:19.244Z,24.30
2018-05-31T18:26:37.480Z,24.00
2018-05-31T18:29:55.724Z,23.90
2018-05-31T18:33:13.995Z,23.90
2018-05-31T18:36:32.273Z,23.90
2018-05-31T18:39:49.784Z,23.80
2018-05-31T18:43:07.269Z,24.00
2018-05-31T18:46:25.429Z,24.10
2018-05-31T18:49:42.968Z,24.10
2018-05-31T18:53:01.277Z,24.20
2018-05-31T18:56:18.706Z,24.20
2018-05-31T18:59:36.178Z,24.20
2018-05-31T19:02:54.420Z,24.10
2018-05-31T19:06:12.680Z,23.90
2018-05-31T19:09:36.894Z,23.40
2018-05-31T19:12:59.939Z,23.40
2018-05-31T19:16:17.395Z,23.20
2018-05-31T19:19:40.434Z,23.00
2018-05-31T19:22:57.919Z,23.00
2018-05-31T19:26:15.468Z,22.80
2018-05-31T19:29:33.868Z,22.90
2018-05-31T19:32:51.363Z,22.80
2018-05-31T19:36:15.380Z,22.60
2018-05-31T19:39:32.853Z,22.60
2018-05-31T19:42:56.560Z,22.40
2018-05-31T19:46:14.831Z,22.30
2018-05-31T19:49:32.316Z,22.30
2018-05-31T19:52:55.894Z,22.20
2018-05-31T19:56:13.422Z,22.30
2018-05-31T19:59:36.887Z,22.30
2018-05-31T20:03:00.828Z,21.80
2018-05-31T20:06:19.067Z,21.80
2018-05-31T20:09:36.911Z,21.80
2018-05-31T20:12:54.422Z,22.00
2018-05-31T20:16:11.907Z,22.10
2018-05-31T20:19:29.375Z,22.10
2018-05-31T20:22:47.416Z,22.10
2018-05-31T20:26:04.924Z,22.10
2018-05-31T20:29:22.427Z,22.10
2018-05-31T20:32:39.884Z,21.90
2018-05-31T20:35:58.140Z,21.60
2018-05-31T20:39:16.381Z,21.40
2018-05-31T20:42:34.611Z,21.30
2018-05-31T20:45:52.095Z,21.30
2018-05-31T20:49:09.560Z,21.30
2018-05-31T20:52:27.037Z,21.10
2018-05-31T20:55:45.304Z,21.10
2018-05-31T20:59:02.785Z,21.10
2018-05-31T21:02:20.248Z,21.10
2018-05-31T21:05:37.719Z,21.00
2018-05-31T21:08:55.184Z,21.10
2018-05-31T21:12:13.441Z,21.20
2018-05-31T21:15:31.685Z,21.20
2018-05-31T21:18:49.927Z,21.30
2018-05-31T21:22:08.166Z,21.30
2018-05-31T21:25:25.637Z,21.30
2018-05-31T21:28:43.107Z,21.30
2018-05-31T21:32:00.617Z,21.30
2018-05-31T21:35:18.078Z,21.30
2018-05-31T21:38:35.535Z,21.30
2018-05-31T21:41:53.780Z,21.10
2018-05-31T21:45:12.018Z,21.10
2018-05-31T21:48:29.476Z,21.10
2018-05-31T21:51:46.986Z,21.00
2018-05-31T21:55:05.241Z,20.60
2018-05-31T21:58:23.468Z,20.50
2018-05-31T22:01:40.961Z,20.50
2018-05-31T22:04:58.458Z,20.50
2018-05-31T22:08:15.967Z,20.50
2018-05-31T22:11:33.535Z,20.40
2018-05-31T22:14:50.974Z,20.40
2018-05-31T22:18:08.443Z,20.20
2018-05-31T22:21:25.918Z,20.10
2018-05-31T22:24:43.420Z,20.00
2018-05-31T22:28:01.670Z,20.00
2018-05-31T22:31:19.902Z,20.00
2018-05-31T22:34:37.371Z,20.00
2018-05-31T22:37:54.853Z,20.00
2018-05-31T22:41:12.322Z,19.90
2018-05-31T22:44:30.547Z,19.90
2018-05-31T22:47:48.024Z,19.80
2018-05-31T22:51:05.505Z,19.90
2018-05-31T22:54:22.969Z,19.90
2018-05-31T22:57:40.444Z,19.90
2018-05-31T23:00:57.919Z,19.90
2018-05-31T23:04:15.388Z,20.00
2018-05-31T23:07:32.871Z,20.00
2018-05-31T23:10:51.109Z,19.80
2018-05-31T23:14:08.572Z,19.80
2018-05-31T23:17:26.041Z,19.80
2018-05-31T23:20:43.524Z,19.80
2018-05-31T23:24:00.997Z,19.90
2018-05-31T23:27:18.465Z,19.80
2018-05-31T23:30:36.707Z,19.70
2018-05-31T23:33:55.466Z,19.40
2018-05-31T23:37:13.717Z,19.40
2018-05-31T23:40:31.951Z,19.40
2018-05-31T23:43:49.429Z,19.30
2018-05-31T23:47:06.915Z,19.40
2018-05-31T23:50:24.384Z,19.30
2018-05-31T23:53:41.853Z,19.10
2018-05-31T23:56:59.330Z,18.90
